Time;durP1;ratioP1;P1;durP2;ratioP2;P2;SDS_P1;SDS_P2;PMS_P1;PMS_P2;Temp;Humidity;BMP_temperature;BMP_pressure;BME280_temperature;BME280_humidity;BME280_pressure;Samples;Min_cycle;Max_cycle;Signal;HPM_P1;HPM_P2
2020/12/13 00:02:20;;;;;;;20.60;16.80;;;4.80;99.90;;;2.01;100.00;99390.19;5029908;27;100068;-62
2020/12/13 00:04:46;;;;;;;22.93;17.43;;;5.00;99.90;;;1.95;100.00;99389.88;5029420;27;100225;-61
2020/12/13 00:07:13;;;;;;;25.33;17.50;;;4.90;99.90;;;1.94;100.00;99393.47;5029605;27;100815;-61
2020/12/13 00:09:41;;;;;;;20.13;16.23;;;4.30;99.90;;;1.93;100.00;99397.91;5029510;27;100247;-61
2020/12/13 00:12:08;;;;;;;21.13;16.33;;;4.90;99.90;;;2.05;100.00;99402.16;5013979;27;99998;-61
2020/12/13 00:14:35;;;;;;;24.87;17.33;;;4.70;99.90;;;1.94;100.00;99399.56;5009184;27;100085;-61
2020/12/13 00:17:02;;;;;;;24.33;17.03;;;5.00;99.90;;;2.06;100.00;99403.00;5009126;27;101651;-63
2020/12/13 00:19:29;;;;;;;24.30;17.27;;;4.80;99.90;;;2.10;100.00;99407.09;5028530;27;100727;-60
2020/12/13 00:21:57;;;;;;;22.60;17.23;;;4.80;99.90;;;2.16;100.00;99409.19;5029474;27;99936;-60
2020/12/13 00:24:24;;;;;;;24.67;17.70;;;4.80;99.90;;;2.24;100.00;99408.56;5029250;27;100161;-60
2020/12/13 00:26:52;;;;;;;22.70;17.43;;;4.90;99.90;;;2.22;100.00;99410.50;5029029;27;102043;-61
2020/12/13 00:29:18;;;;;;;22.70;16.07;;;5.10;99.90;;;2.30;100.00;99413.34;5028645;27;100601;-61
2020/12/13 00:31:45;;;;;;;23.97;17.87;;;5.00;99.90;;;2.06;100.00;99414.41;5029342;27;100240;-61
2020/12/13 00:34:11;;;;;;;21.43;16.53;;;5.00;99.90;;;2.01;100.00;99413.94;5028931;27;100245;-62
2020/12/13 00:36:38;;;;;;;24.73;18.03;;;5.60;99.90;;;2.12;100.00;99407.75;5028376;27;101474;-61
2020/12/13 00:39:05;;;;;;;21.50;16.60;;;5.00;99.90;;;2.00;100.00;99417.53;5023822;27;100714;-61
2020/12/13 00:41:32;;;;;;;19.87;15.77;;;5.10;99.90;;;2.14;100.00;99421.69;5007987;27;100016;-59
2020/12/13 00:43:59;;;;;;;23.73;17.33;;;5.00;99.90;;;2.06;100.00;99426.75;5008325;27;100125;-62
2020/12/13 00:46:26;;;;;;;24.63;17.33;;;5.00;99.90;;;2.06;100.00;99426.75;5008135;27;101587;-61
2020/12/13 00:48:52;;;;;;;22.77;17.33;;;4.90;99.90;;;2.08;100.00;99433.59;5008869;27;100358;-61
2020/12/13 00:51:26;;;;;;;22.63;17.87;;;5.00;99.90;;;2.09;100.00;99430.00;5025115;27;100401;-60
2020/12/13 00:53:53;;;;;;;22.87;17.73;;;4.90;99.90;;;2.06;100.00;99435.50;5044142;27;100313;-61
2020/12/13 00:56:20;;;;;;;22.53;16.70;;;4.90;99.90;;;2.01;100.00;99431.56;5028329;27;101295;-61
2020/12/13 00:58:48;;;;;;;21.77;15.63;;;4.90;99.90;;;1.95;100.00;99435.56;5043339;27;102571;-60
2020/12/13 01:01:15;;;;;;;24.97;16.47;;;4.90;99.90;;;1.92;100.00;99427.88;5028402;27;99986;-60
2020/12/13 01:03:41;;;;;;;23.17;16.77;;;4.90;99.90;;;1.92;100.00;99429.69;5029007;27;100257;-61
2020/12/13 01:06:08;;;;;;;22.67;17.60;;;5.00;99.90;;;1.93;100.00;99434.00;5026783;27;101512;-58
2020/12/13 01:08:34;;;;;;;21.97;16.87;;;4.70;99.90;;;1.91;100.00;99442.03;5028339;27;99997;-59
2020/12/13 01:11:01;;;;;;;21.30;16.57;;;4.70;99.90;;;1.93;100.00;99440.09;5026046;27;100057;-61
2020/12/13 01:13:27;;;;;;;20.57;16.27;;;4.70;99.90;;;2.02;100.00;99449.06;5028479;27;100378;-59
2020/12/13 01:15:54;;;;;;;22.93;17.03;;;4.70;99.90;;;2.01;100.00;99453.50;5027473;27;100713;-62
2020/12/13 01:18:21;;;;;;;21.30;17.10;;;4.80;99.90;;;1.92;100.00;99453.41;5027636;27;100820;-60
2020/12/13 01:20:48;;;;;;;23.87;16.23;;;4.90;99.90;;;1.88;100.00;99451.97;5027963;27;100007;-60
2020/12/13 01:23:14;;;;;;;21.40;16.60;;;4.70;99.90;;;1.91;100.00;99446.47;5028916;27;100095;-60
2020/12/13 01:25:40;;;;;;;23.57;17.47;;;4.70;99.90;;;1.93;100.00;99452.47;5027890;27;101272;-60
2020/12/13 01:28:07;;;;;;;23.33;17.80;;;4.70;99.90;;;1.89;100.00;99451.03;5027768;27;101239;-60
2020/12/13 01:30:33;;;;;;;22.40;16.10;;;4.70;99.90;;;1.88;100.00;99455.47;5027764;27;100081;-60
2020/12/13 01:33:00;;;;;;;23.10;17.77;;;4.80;99.90;;;1.90;100.00;99447.41;5021412;27;100210;-61
2020/12/13 01:35:27;;;;;;;22.83;17.43;;;4.80;99.90;;;1.87;100.00;99450.31;5006771;27;100476;-59
2020/12/13 01:37:53;;;;;;;19.60;15.97;;;3.70;99.90;;;1.82;100.00;99445.41;5007249;27;100755;-60
2020/12/13 01:40:20;;;;;;;19.97;16.10;;;4.70;99.90;;;1.83;100.00;99462.09;5007502;27;100022;-60
2020/12/13 01:42:47;;;;;;;22.50;16.97;;;4.60;99.90;;;1.83;100.00;99462.09;5007848;27;100516;-59
2020/12/13 01:45:18;;;;;;;24.17;16.83;;;4.70;99.90;;;1.87;100.00;99456.41;5007065;27;100810;-60
2020/12/13 01:47:46;;;;;;;22.07;17.17;;;4.70;99.90;;;1.86;100.00;99465.28;5006906;27;100894;-60
2020/12/13 01:50:24;;;;;;;19.17;16.13;;;4.70;99.90;;;1.86;100.00;99456.53;5017024;27;101803;-60
2020/12/13 01:52:51;;;;;;;20.83;16.20;;;4.80;99.90;;;1.90;100.00;99471.16;5028307;27;100236;-60
2020/12/13 01:55:20;;;;;;;21.83;16.10;;;4.60;99.90;;;2.01;100.00;99473.78;5027130;27;101045;-60
2020/12/13 01:57:50;;;;;;;22.60;16.40;;;4.70;99.90;;;2.05;100.00;99481.34;5027199;27;101364;-61
2020/12/13 02:00:18;;;;;;;21.20;16.90;;;4.70;99.90;;;2.13;100.00;99475.41;5025337;27;100173;-60
2020/12/13 02:02:52;;;;;;;21.27;15.90;;;5.30;99.90;;;2.14;100.00;99474.47;5007772;27;100202;-59
2020/12/13 02:05:21;;;;;;;19.10;15.20;;;4.80;99.90;;;2.11;100.00;99475.53;5017360;27;101447;-60
2020/12/13 02:07:48;;;;;;;22.73;16.27;;;4.80;99.90;;;2.11;100.00;99485.25;5027701;27;101046;-60
2020/12/13 02:10:17;;;;;;;22.90;16.97;;;4.80;99.90;;;2.18;100.00;99497.00;5027474;27;100201;-60
2020/12/13 02:12:43;;;;;;;25.13;17.30;;;4.70;99.90;;;2.13;100.00;99485.97;5025654;27;100147;-60
2020/12/13 02:15:11;;;;;;;24.23;17.80;;;4.90;99.90;;;2.11;100.00;99488.75;5026887;27;101689;-60
2020/12/13 02:17:37;;;;;;;24.43;17.00;;;4.90;99.90;;;2.13;100.00;99492.09;5027599;27;100550;-61
2020/12/13 02:20:11;;;;;;;21.97;16.40;;;4.90;99.90;;;2.19;100.00;99495.22;5026742;27;100144;-61
2020/12/13 02:22:42;;;;;;;23.20;17.80;;;4.90;99.90;;;2.19;100.00;99492.56;5028041;27;100276;-60
2020/12/13 02:25:11;;;;;;;24.10;17.23;;;4.90;99.90;;;2.23;100.00;99488.69;5026316;27;100867;-61
2020/12/13 02:27:37;;;;;;;27.17;19.90;;;5.00;99.90;;;2.24;100.00;99488.56;5027102;27;100346;-61
2020/12/13 02:30:06;;;;;;;23.33;17.87;;;5.70;99.90;;;2.30;100.00;99489.91;5010962;27;100354;-60
2020/12/13 02:32:33;;;;;;;23.17;17.93;;;4.90;99.90;;;2.32;100.00;99494.09;5007098;27;100120;-60
2020/12/13 02:35:00;;;;;;;24.30;18.80;;;4.90;99.90;;;2.35;100.00;99490.38;5011378;27;100175;-60
2020/12/13 02:37:27;;;;;;;26.00;19.27;;;4.80;99.90;;;2.40;100.00;99493.44;5027168;27;101375;-60
2020/12/13 02:39:54;;;;;;;27.77;19.77;;;4.90;99.90;;;2.45;100.00;99499.22;5027023;27;100073;-58
2020/12/13 02:42:21;;;;;;;26.90;19.57;;;4.90;99.90;;;2.47;100.00;99494.66;5027859;27;100063;-62
2020/12/13 02:44:47;;;;;;;27.60;20.30;;;4.80;99.90;;;2.44;100.00;99497.53;5026034;27;100972;-59
2020/12/13 02:47:14;;;;;;;23.93;18.70;;;4.80;99.90;;;2.49;100.00;99501.44;5026593;27;100881;-60
2020/12/13 02:49:42;;;;;;;26.23;18.80;;;5.00;99.90;;;2.53;100.00;99500.25;5026729;27;100390;-62
2020/12/13 02:52:08;;;;;;;25.23;19.47;;;4.90;99.90;;;2.54;100.00;99490.53;5027390;27;100164;-61
2020/12/13 02:54:35;;;;;;;27.57;19.57;;;4.90;99.90;;;2.56;100.00;99499.16;5026576;27;101464;-60
2020/12/13 02:57:03;;;;;;;26.60;20.30;;;4.80;99.90;;;2.60;100.00;99500.56;5016048;27;101054;-59
2020/12/13 02:59:29;;;;;;;24.07;18.93;;;5.00;99.90;;;2.63;100.00;99499.47;5003480;27;100243;-61
2020/12/13 03:01:56;;;;;;;27.70;18.70;;;4.90;99.90;;;2.67;100.00;99499.09;5007543;27;100217;-62
2020/12/13 03:04:22;;;;;;;24.10;19.17;;;6.20;99.90;;;2.68;100.00;99500.78;5009140;27;100946;-62
2020/12/13 03:06:49;;;;;;;26.20;19.87;;;5.10;99.90;;;2.65;100.00;99505.47;5026649;27;101083;-60
2020/12/13 03:09:15;;;;;;;23.97;17.40;;;5.10;99.90;;;2.77;100.00;99509.75;5017947;27;100239;-63
2020/12/13 03:11:42;;;;;;;25.77;19.20;;;5.10;99.90;;;2.75;100.00;99512.50;5006135;27;100245;-62
2020/12/13 03:14:09;;;;;;;26.13;18.73;;;6.20;99.90;;;2.74;100.00;99512.63;5006330;27;100398;-61
2020/12/13 03:16:36;;;;;;;27.30;19.80;;;5.00;99.90;;;2.68;100.00;99514.00;5006210;27;100581;-60
2020/12/13 03:19:02;;;;;;;27.10;19.70;;;5.10;99.90;;;2.72;100.00;99510.13;5006366;27;100232;-61
2020/12/13 03:21:29;;;;;;;24.80;18.53;;;5.10;99.90;;;2.65;100.00;99518.69;5006454;27;100157;-60
2020/12/13 03:23:56;;;;;;;27.73;19.87;;;5.30;99.90;;;2.66;100.00;99518.56;5007656;27;100846;-61
2020/12/13 03:26:22;;;;;;;27.50;19.53;;;5.20;99.90;;;2.63;100.00;99521.44;5026335;27;100633;-61
2020/12/13 03:28:48;;;;;;;25.60;18.90;;;5.40;99.90;;;2.60;100.00;99526.97;5027015;27;99965;-61
2020/12/13 03:31:16;;;;;;;26.57;18.97;;;5.30;99.90;;;2.60;100.00;99536.72;5026706;27;99952;-61
2020/12/13 03:33:42;;;;;;;28.77;19.83;;;5.20;99.90;;;2.60;100.00;99540.19;5025845;27;100940;-61
2020/12/13 03:36:09;;;;;;;29.87;20.17;;;5.40;99.90;;;2.65;100.00;99534.53;5025564;27;100427;-63
2020/12/13 03:38:35;;;;;;;23.90;17.50;;;5.10;99.90;;;2.74;100.00;99534.59;5026750;27;100084;-62
2020/12/13 03:41:01;;;;;;;27.33;20.07;;;5.30;99.90;;;2.73;100.00;99540.84;5026256;27;100336;-63
2020/12/13 03:43:29;;;;;;;25.77;18.53;;;5.30;99.90;;;2.83;100.00;99543.59;5025490;27;101339;-63
2020/12/13 03:45:55;;;;;;;28.30;20.23;;;5.30;99.90;;;2.77;100.00;99550.22;5025150;27;100184;-63
2020/12/13 03:48:22;;;;;;;23.97;17.70;;;5.30;99.90;;;2.79;100.00;99547.44;5024224;27;100034;-60
2020/12/13 03:50:49;;;;;;;23.10;17.00;;;5.20;99.90;;;2.88;100.00;99547.50;5023765;27;100343;-60
2020/12/13 03:53:16;;;;;;;25.90;19.63;;;5.40;99.90;;;2.81;100.00;99549.00;5025756;27;101370;-60
2020/12/13 03:55:43;;;;;;;22.23;18.33;;;5.30;99.90;;;2.76;100.00;99552.97;5010687;27;100657;-60
2020/12/13 03:58:09;;;;;;;27.53;18.73;;;5.50;99.90;;;2.80;100.00;99549.97;5005686;27;99863;-60
2020/12/13 04:00:36;;;;;;;23.27;17.17;;;5.40;99.90;;;2.82;100.00;99552.47;5020281;27;99967;-61
2020/12/13 04:03:04;;;;;;;25.20;18.97;;;4.80;99.90;;;2.74;100.00;99553.09;5026226;27;101342;-60
2020/12/13 04:05:33;;;;;;;25.57;17.90;;;5.60;99.90;;;2.75;100.00;99556.56;5025156;27;101346;-61
2020/12/13 04:08:00;;;;;;;24.83;18.40;;;5.60;99.90;;;2.79;100.00;99558.00;5026420;27;100049;-60
2020/12/13 04:10:27;;;;;;;27.83;18.83;;;5.40;99.90;;;2.70;100.00;99546.41;5028013;27;100064;-61
2020/12/13 04:12:54;;;;;;;24.37;17.33;;;5.50;99.90;;;2.64;100.00;99551.34;5029175;27;100486;-61
2020/12/13 04:15:21;;;;;;;27.97;19.20;;;5.50;99.90;;;2.68;100.00;99555.41;5021665;27;100438;-61
2020/12/13 04:17:48;;;;;;;24.57;17.50;;;5.50;99.90;;;2.78;100.00;99554.53;5009764;27;100140;-59
2020/12/13 04:20:15;;;;;;;23.33;17.87;;;5.50;99.90;;;2.73;100.00;99554.06;5009349;27;100189;-60
2020/12/13 04:22:43;;;;;;;25.73;18.70;;;5.50;99.90;;;2.76;100.00;99564.38;5008696;27;100767;-58
2020/12/13 04:25:10;;;;;;;26.67;18.00;;;5.50;99.90;;;2.72;100.00;99562.13;5008627;27;100657;-58
2020/12/13 04:27:36;;;;;;;23.40;18.00;;;5.50;99.90;;;2.75;100.00;99553.94;5008991;27;100077;-59
2020/12/13 04:30:04;;;;;;;28.00;18.53;;;5.40;99.90;;;2.72;100.00;99562.94;5008716;27;100228;-62
2020/12/13 04:32:31;;;;;;;27.93;19.63;;;5.40;99.90;;;2.82;100.00;99563.88;5006578;27;103170;-62
2020/12/13 04:34:57;;;;;;;25.53;18.10;;;5.40;99.90;;;2.79;100.00;99571.22;5009338;27;100989;-62
2020/12/13 04:37:24;;;;;;;28.40;19.90;;;5.40;99.90;;;2.79;100.00;99574.69;5008801;27;100237;-62
2020/12/13 04:39:53;;;;;;;27.47;18.83;;;5.50;99.90;;;2.83;100.00;99575.31;5008994;27;100094;-62
2020/12/13 04:42:20;;;;;;;28.30;19.80;;;5.40;99.90;;;2.78;100.00;99572.19;5008555;27;101483;-63
2020/12/13 04:44:47;;;;;;;26.30;18.90;;;5.50;99.90;;;2.77;100.00;99581.91;5028300;27;99928;-60
2020/12/13 04:47:17;;;;;;;29.33;19.67;;;5.60;99.90;;;2.75;100.00;99581.19;5028860;27;100086;-62
2020/12/13 04:49:48;;;;;;;26.57;18.77;;;5.50;99.90;;;2.74;100.00;99576.03;5028958;27;100148;-61
2020/12/13 04:52:14;;;;;;;27.77;19.17;;;5.60;99.90;;;2.75;100.00;99575.06;5028811;27;100687;-63
2020/12/13 04:54:48;;;;;;;26.30;19.23;;;5.50;99.90;;;2.76;100.00;99585.50;5027907;27;100408;-62
2020/12/13 04:57:17;;;;;;;28.80;19.20;;;5.50;99.90;;;2.75;100.00;99583.84;5029167;27;100039;-61
2020/12/13 04:59:43;;;;;;;26.93;19.17;;;6.20;99.90;;;2.72;100.00;99593.84;5028034;27;99977;-62
2020/12/13 05:02:12;;;;;;;27.67;20.03;;;5.40;99.90;;;2.75;100.00;99586.47;5028494;27;101446;-62
2020/12/13 05:04:39;;;;;;;28.93;20.17;;;5.50;99.90;;;2.77;100.00;99589.84;5028838;27;100261;-60
2020/12/13 05:07:05;;;;;;;27.93;19.77;;;5.30;99.90;;;2.82;100.00;99594.75;5028516;27;100013;-60
2020/12/13 05:09:33;;;;;;;27.67;20.13;;;5.40;99.90;;;2.91;100.00;99595.78;5023575;27;100121;-60
2020/12/13 05:11:59;;;;;;;27.80;19.37;;;5.40;99.90;;;2.92;100.00;99605.41;5006917;27;101404;-59
2020/12/13 05:14:27;;;;;;;29.00;19.73;;;5.40;99.90;;;2.86;100.00;99597.00;5007809;27;100942;-60
2020/12/13 05:17:12;;;;;;;26.77;19.20;;;5.40;99.90;;;2.94;100.00;99603.47;5008402;27;99926;-61
2020/12/13 05:19:41;;;;;;;31.63;20.80;;;5.40;99.90;;;2.91;100.00;99606.38;5011341;27;100323;-60
2020/12/13 05:22:11;;;;;;;29.47;20.97;;;5.50;99.90;;;2.93;100.00;99615.84;5027783;27;101465;-60
2020/12/13 05:24:37;;;;;;;28.57;21.00;;;5.40;99.90;;;2.95;100.00;99607.81;5027274;27;101062;-60
2020/12/13 05:27:05;;;;;;;29.10;21.10;;;5.50;99.90;;;2.94;100.00;99611.41;5028983;27;100051;-62
2020/12/13 05:29:36;;;;;;;29.50;21.23;;;5.50;99.90;;;2.89;100.00;99617.06;5028464;27;100113;-59
2020/12/13 05:32:25;;;;;;;30.53;21.10;;;5.40;99.90;;;2.94;100.00;99622.81;5028138;27;101221;-61
2020/12/13 05:34:52;;;;;;;28.40;21.67;;;5.20;99.90;;;2.99;100.00;99620.63;5027814;27;100319;-60
2020/12/13 05:37:20;;;;;;;34.83;23.27;;;5.30;99.90;;;2.96;100.00;99620.06;5023873;27;100025;-59
2020/12/13 05:39:51;;;;;;;31.30;21.33;;;5.50;99.90;;;3.02;100.00;99620.38;5007842;27;100235;-60
2020/12/13 05:42:28;;;;;;;38.20;22.90;;;5.50;99.90;;;3.07;100.00;99625.28;5007820;27;101092;-63
2020/12/13 05:50:56;;;;;;;30.90;21.27;;;5.30;99.90;;;2.98;100.00;99634.78;5007459;27;100136;-60
2020/12/13 05:53:23;;;;;;;30.23;21.47;;;5.30;99.90;;;2.96;100.00;99625.34;5007636;27;102245;-61
2020/12/13 05:55:53;;;;;;;31.37;21.30;;;5.30;99.90;;;2.95;100.00;99627.13;5007371;27;101356;-62
2020/12/13 05:58:19;;;;;;;29.50;21.07;;;5.30;99.90;;;2.97;100.00;99627.00;5007436;27;99979;-60
2020/12/13 06:00:47;;;;;;;31.23;20.83;;;5.30;99.90;;;2.96;100.00;99631.47;5006961;27;101476;-61
2020/12/13 06:03:16;;;;;;;32.80;22.23;;;5.40;99.90;;;2.97;100.00;99635.75;5006576;27;100728;-61
2020/12/13 06:05:43;;;;;;;31.73;22.67;;;5.30;99.90;;;2.96;100.00;99636.75;5018768;27;101117;-61
2020/12/13 06:08:15;;;;;;;32.10;22.67;;;5.30;99.90;;;2.96;100.00;99630.63;5007299;27;99984;-60
2020/12/13 06:10:45;;;;;;;30.90;21.63;;;5.40;99.90;;;2.98;100.00;99633.94;5007302;27;100001;-60
2020/12/13 06:13:18;;;;;;;33.53;22.80;;;5.30;99.90;;;2.95;100.00;99635.06;5007101;27;100903;-61
2020/12/13 06:15:48;;;;;;;32.17;21.93;;;5.40;99.90;;;2.92;100.00;99630.03;5007844;27;100538;-61
2020/12/13 06:18:14;;;;;;;33.97;22.97;;;5.40;99.90;;;2.87;100.00;99633.03;5007902;27;100154;-61
2020/12/13 06:20:42;;;;;;;32.30;22.93;;;5.40;99.90;;;2.92;100.00;99637.09;5007609;27;100213;-61
2020/12/13 06:23:08;;;;;;;31.33;23.20;;;5.30;99.90;;;2.90;100.00;99637.22;5004734;27;101223;-60
2020/12/13 06:25:35;;;;;;;31.60;22.17;;;5.40;99.90;;;2.92;100.00;99642.41;5020840;27;102707;-60
2020/12/13 06:28:02;;;;;;;33.07;22.67;;;5.30;99.90;;;2.93;100.00;99642.28;5027338;27;99990;-60
2020/12/13 06:30:29;;;;;;;31.53;22.00;;;5.30;99.90;;;2.89;100.00;99644.31;5026978;27;100246;-61
2020/12/13 06:32:56;;;;;;;34.23;22.97;;;5.30;99.90;;;2.88;100.00;99649.72;5025993;27;101432;-60
2020/12/13 06:35:23;;;;;;;30.63;21.50;;;5.40;99.90;;;2.95;100.00;99658.00;5026999;27;100694;-62
2020/12/13 06:37:49;;;;;;;33.07;22.23;;;5.40;99.90;;;2.94;100.00;99659.81;5027805;27;99999;-61
2020/12/13 06:40:20;;;;;;;34.33;22.23;;;5.30;99.90;;;2.95;100.00;99665.94;5027591;27;100125;-60
2020/12/13 06:42:48;;;;;;;35.50;22.80;;;5.30;99.90;;;2.96;100.00;99657.03;5027342;27;101170;-61
2020/12/13 06:45:16;;;;;;;31.23;22.10;;;5.30;99.90;;;2.92;100.00;99672.31;5027435;27;100866;-59
2020/12/13 06:47:44;;;;;;;32.40;21.83;;;5.30;99.90;;;2.93;100.00;99666.06;5027579;27;99920;-61
2020/12/13 06:50:20;;;;;;;31.63;23.67;;;5.50;99.90;;;2.95;100.00;99663.28;5027107;27;100247;-62
2020/12/13 06:52:49;;;;;;;33.60;22.10;;;5.40;99.90;;;2.98;100.00;99673.59;5026750;27;100893;-62
2020/12/13 06:55:16;;;;;;;32.27;22.47;;;5.40;99.90;;;2.96;100.00;99676.38;5026940;27;100440;-60
2020/12/13 06:57:45;;;;;;;32.47;20.93;;;5.40;99.90;;;2.97;100.00;99672.75;5027385;27;99966;-59
2020/12/13 07:00:13;;;;;;;34.67;22.43;;;5.70;99.90;;;2.98;100.00;99685.00;5025915;27;100126;-61
2020/12/13 07:02:48;;;;;;;31.70;22.83;;;5.50;99.90;;;2.99;100.00;99684.03;5026757;27;100992;-62
2020/12/13 07:05:15;;;;;;;30.23;21.20;;;5.30;99.90;;;3.03;100.00;99692.56;5023290;27;102114;-61
2020/12/13 07:07:46;;;;;;;32.77;21.33;;;5.40;99.90;;;3.04;100.00;99694.25;5023241;27;100135;-62
2020/12/13 07:10:13;;;;;;;30.57;21.97;;;5.50;99.90;;;3.01;100.00;99697.97;5024513;27;100254;-61
2020/12/13 07:12:53;;;;;;;31.63;22.23;;;5.50;99.90;;;3.00;100.00;99698.09;5023557;27;101294;-60
2020/12/13 07:15:35;;;;;;;30.63;21.03;;;5.60;99.90;;;3.01;100.00;99708.56;5023469;27;101646;-61
2020/12/13 07:18:02;;;;;;;30.37;21.27;;;4.50;99.90;;;3.07;100.00;99707.22;5020533;27;99845;-59
2020/12/13 07:20:30;;;;;;;34.93;22.27;;;6.70;99.90;;;3.05;100.00;99711.78;5018039;27;100436;-59
2020/12/13 07:22:57;;;;;;;29.37;20.83;;;5.60;99.90;;;3.02;100.00;99717.31;5024274;27;101428;-61
2020/12/13 07:25:24;;;;;;;31.37;20.47;;;5.50;99.90;;;3.06;100.00;99718.75;5023748;27;100732;-60
2020/12/13 07:27:52;;;;;;;28.07;20.50;;;5.50;99.90;;;3.07;100.00;99728.38;5024415;27;100142;-60
2020/12/13 07:30:19;;;;;;;30.60;22.50;;;5.80;99.90;;;3.08;100.00;99720.31;5024163;27;100268;-60
2020/12/13 07:32:45;;;;;;;158.87;32.43;;;5.70;99.90;;;3.16;100.00;99720.53;5008645;27;101377;-60
2020/12/13 07:35:13;;;;;;;32.37;22.33;;;5.70;99.90;;;3.12;100.00;99723.53;5003295;27;101408;-59
2020/12/13 07:37:42;;;;;;;32.57;22.30;;;5.60;99.90;;;3.10;100.00;99733.38;5004471;27;100341;-60
2020/12/13 07:40:13;;;;;;;30.70;22.07;;;5.70;99.90;;;3.12;100.00;99729.66;5005117;27;100517;-60
2020/12/13 07:42:53;;;;;;;31.17;21.63;;;5.60;99.90;;;3.11;100.00;99737.72;5002894;27;101431;-60
2020/12/13 07:45:20;;;;;;;31.53;21.50;;;5.70;99.90;;;3.11;100.00;99730.63;5007231;27;100368;-61
2020/12/13 07:47:50;;;;;;;33.93;21.90;;;5.60;99.90;;;3.16;100.00;99735.53;5006970;27;100199;-60
2020/12/13 07:50:16;;;;;;;33.87;21.90;;;5.80;99.90;;;3.11;100.00;99748.28;5006520;27;100184;-60
2020/12/13 07:52:46;;;;;;;29.53;21.20;;;5.70;99.90;;;3.13;100.00;99746.38;5023844;27;99962;-60
2020/12/13 07:55:12;;;;;;;31.47;22.90;;;5.80;99.90;;;3.16;100.00;99748.75;5018226;27;101771;-60
2020/12/13 07:57:47;;;;;;;29.53;20.43;;;5.70;99.90;;;3.24;100.00;99743.69;5013852;27;101078;-61
2020/12/13 08:00:13;;;;;;;27.90;20.77;;;5.90;99.90;;;3.26;100.00;99744.41;5027200;27;100099;-60
2020/12/13 08:02:40;;;;;;;28.67;20.77;;;5.70;99.90;;;3.25;100.00;99763.88;5027289;27;100541;-60
2020/12/13 08:05:07;;;;;;;29.77;21.07;;;5.70;99.90;;;3.30;100.00;99766.16;5027022;27;100754;-61
2020/12/13 08:07:33;;;;;;;29.70;20.73;;;5.80;99.90;;;3.34;100.00;99764.94;5027252;27;100167;-61
2020/12/13 08:10:01;;;;;;;32.53;21.80;;;5.70;99.90;;;3.33;100.00;99766.75;5027808;27;100325;-60
2020/12/13 08:12:34;;;;;;;30.40;21.03;;;5.80;99.90;;;3.36;100.00;99770.94;5011148;27;101262;-60
2020/12/13 08:15:00;;;;;;;31.67;21.40;;;5.90;99.90;;;3.37;100.00;99781.38;5005640;27;100534;-59
2020/12/13 08:17:27;;;;;;;30.70;22.20;;;5.80;99.90;;;3.38;100.00;99784.88;5006184;27;100016;-59
2020/12/13 08:20:01;;;;;;;31.20;22.13;;;5.80;99.90;;;3.39;100.00;99787.41;5015326;27;100360;-61
2020/12/13 08:22:28;;;;;;;34.57;22.20;;;5.90;99.90;;;3.37;100.00;99785.84;5026797;27;101425;-60
2020/12/13 08:24:56;;;;;;;30.37;21.10;;;5.80;99.90;;;3.38;100.00;99790.16;5027323;27;100828;-60
2020/12/13 08:27:25;;;;;;;30.83;22.03;;;5.80;99.90;;;3.39;100.00;99790.03;5024862;27;100076;-60
2020/12/13 08:29:52;;;;;;;31.07;20.67;;;5.90;99.90;;;3.44;100.00;99785.22;5026568;27;100236;-60
2020/12/13 08:32:23;;;;;;;34.10;22.83;;;5.90;99.90;;;3.48;100.00;99797.22;5008275;27;101671;-60
2020/12/13 08:34:50;;;;;;;30.80;21.17;;;5.30;99.90;;;3.56;100.00;99800.09;5006210;27;101067;-62
2020/12/13 08:37:23;;;;;;;30.63;22.33;;;5.90;99.90;;;3.51;100.00;99802.28;5005896;27;100061;-60
2020/12/13 08:39:50;;;;;;;33.67;22.77;;;6.00;99.90;;;3.48;100.00;99797.22;5012625;27;100211;-60
2020/12/13 08:42:24;;;;;;;29.93;21.83;;;6.00;99.90;;;3.49;100.00;99803.34;5025602;27;101365;-62
2020/12/13 08:44:51;;;;;;;29.70;21.33;;;6.00;99.90;;;3.48;100.00;99809.59;5023523;27;100593;-61
2020/12/13 08:47:19;;;;;;;34.00;21.70;;;6.10;99.90;;;3.49;100.00;99816.56;5005857;27;100204;-61
2020/12/13 08:49:49;;;;;;;27.97;20.83;;;5.80;99.90;;;3.51;100.00;99812.84;5006016;27;100030;-61
2020/12/13 08:52:19;;;;;;;32.37;21.37;;;6.00;99.90;;;3.49;100.00;99811.28;5018095;27;100117;-60
2020/12/13 08:54:51;;;;;;;31.20;22.20;;;6.00;99.90;;;3.53;100.00;99813.56;5025251;27;101033;-58
2020/12/13 08:57:29;;;;;;;42.53;30.37;;;6.00;99.90;;;3.56;100.00;99823.91;5024936;27;100124;-59
2020/12/13 09:00:07;;;;;;;33.80;23.30;;;5.90;99.90;;;3.57;100.00;99822.94;5025221;27;100046;-61
2020/12/13 09:02:34;;;;;;;32.17;21.90;;;6.00;99.90;;;3.60;100.00;99827.13;5025359;27;100148;-59
2020/12/13 09:05:03;;;;;;;30.03;22.53;;;5.80;99.90;;;3.65;100.00;99827.59;5018333;27;101401;-60
2020/12/13 09:07:32;;;;;;;32.73;22.47;;;5.90;99.90;;;3.70;100.00;99825.44;5005875;27;100053;-60
2020/12/13 09:10:14;;;;;;;32.33;22.03;;;6.30;99.90;;;3.72;100.00;99836.69;5005607;27;99912;-59
2020/12/13 09:12:42;;;;;;;31.60;21.83;;;6.10;99.90;;;3.71;100.00;99828.91;5019305;27;100539;-59
2020/12/13 09:15:10;;;;;;;32.63;21.57;;;6.10;99.90;;;3.82;100.00;99832.34;5025729;27;100934;-61
2020/12/13 09:17:37;;;;;;;32.43;21.70;;;6.10;99.90;;;3.81;100.00;99835.13;5025564;27;100021;-62
2020/12/13 09:20:04;;;;;;;30.70;21.20;;;6.10;99.90;;;3.81;100.00;99838.63;5025489;27;100321;-60
2020/12/13 09:22:31;;;;;;;32.07;22.17;;;6.20;99.90;;;3.85;100.00;99841.81;5025232;27;100954;-60
2020/12/13 09:24:58;;;;;;;32.37;22.47;;;6.20;99.90;;;4.00;100.00;99855.63;5025378;27;100211;-60
2020/12/13 09:27:25;;;;;;;30.70;20.67;;;6.20;99.90;;;3.96;100.00;99847.91;5010604;27;100255;-60
2020/12/13 09:29:53;;;;;;;29.63;21.23;;;6.30;99.90;;;3.93;100.00;99850.00;5003121;27;100100;-60
2020/12/13 09:32:22;;;;;;;31.73;21.67;;;6.30;99.90;;;3.94;100.00;99851.69;5005203;27;101341;-61
2020/12/13 09:34:49;;;;;;;27.50;19.23;;;6.40;99.90;;;3.91;100.00;99847.47;5005020;27;100884;-62
2020/12/13 09:37:20;;;;;;;28.10;20.47;;;6.40;99.90;;;4.02;100.00;99851.03;5005470;27;100314;-60
2020/12/13 09:39:47;;;;;;;32.30;22.47;;;6.40;99.90;;;3.91;100.00;99846.63;5005531;27;99981;-60
2020/12/13 09:42:14;;;;;;;29.87;21.13;;;6.40;99.90;;;4.13;100.00;99850.97;5004923;27;101072;-59
2020/12/13 09:44:44;;;;;;;28.63;20.50;;;6.40;99.90;;;3.96;100.00;99852.38;5004581;27;101156;-59
2020/12/13 09:47:11;;;;;;;28.00;19.80;;;6.50;99.90;;;4.08;100.00;99861.13;5019670;27;100209;-60
2020/12/13 09:49:38;;;;;;;24.80;18.17;;;6.50;99.90;;;4.12;100.00;99851.94;5025093;27;100217;-60
2020/12/13 09:52:04;;;;;;;30.27;20.10;;;6.50;99.90;;;4.10;100.00;99859.16;5025527;27;100833;-60
2020/12/13 09:54:31;;;;;;;32.60;22.10;;;6.50;99.90;;;4.12;100.00;99857.25;5024707;27;101056;-60
2020/12/13 09:56:58;;;;;;;32.10;22.07;;;6.60;99.90;;;4.15;100.00;99854.34;5025721;27;99987;-61
2020/12/13 09:59:25;;;;;;;31.73;22.90;;;6.60;99.90;;;4.17;100.00;99853.25;5022642;27;99920;-60
2020/12/13 10:01:51;;;;;;;38.60;26.90;;;6.70;99.90;;;4.18;100.00;99854.09;5018073;27;103267;-59
2020/12/13 10:04:21;;;;;;;38.60;27.33;;;6.70;99.90;;;4.14;100.00;99852.66;5012479;27;101379;-60
2020/12/13 10:07:09;;;;;;;39.47;27.37;;;6.80;99.90;;;4.16;100.00;99856.88;5004206;27;100056;-60
2020/12/13 10:09:35;;;;;;;36.30;24.63;;;6.70;99.90;;;4.23;100.00;99857.19;5004618;27;99887;-60
2020/12/13 10:12:02;;;;;;;31.33;21.97;;;7.20;99.90;;;4.15;100.00;99851.69;5003596;27;101168;-61
2020/12/13 10:14:28;;;;;;;26.97;18.17;;;6.70;99.90;;;4.21;100.00;99844.06;5003863;27;101057;-60
2020/12/13 10:16:55;;;;;;;28.90;19.67;;;6.80;99.90;;;4.30;100.00;99845.13;5017354;27;100190;-59
2020/12/13 10:19:23;;;;;;;25.07;18.50;;;6.80;99.90;;;4.27;100.00;99840.06;5025619;27;100314;-60